createdAt,value
2023-02-02T00:01:30.385Z,2.70
2023-02-02T00:04:07.794Z,3.30
2023-02-02T00:06:35.598Z,2.78
2023-02-02T00:09:12.394Z,2.85
2023-02-02T00:11:42.492Z,3.15
2023-02-02T00:14:21.118Z,3.17
2023-02-02T00:16:56.888Z,3.15
2023-02-02T00:19:26.662Z,3.38
2023-02-02T00:21:54.904Z,2.20
2023-02-02T00:24:22.179Z,3.80
2023-02-02T00:26:53.187Z,2.90
2023-02-02T00:29:22.300Z,2.70
2023-02-02T00:31:49.501Z,3.53
2023-02-02T00:34:17.103Z,2.88
2023-02-02T00:36:44.602Z,3.13
2023-02-02T00:39:15.821Z,2.85
2023-02-02T00:41:42.415Z,2.58
2023-02-02T00:44:27.304Z,2.60
2023-02-02T00:46:53.723Z,2.70
2023-02-02T00:49:20.513Z,2.33
2023-02-02T00:51:47.003Z,2.30
2023-02-02T00:54:14.425Z,2.58
2023-02-02T00:56:41.740Z,3.53
2023-02-02T00:59:08.403Z,2.40
2023-02-02T01:01:34.911Z,2.58
2023-02-02T01:04:01.977Z,2.55
2023-02-02T01:06:28.707Z,2.63
2023-02-02T01:08:55.368Z,2.65
2023-02-02T01:11:21.904Z,3.03
2023-02-02T01:13:48.427Z,2.47
2023-02-02T01:16:15.927Z,3.30
2023-02-02T01:18:42.829Z,2.33
2023-02-02T01:21:11.812Z,2.30
2023-02-02T01:23:39.065Z,2.55
2023-02-02T01:26:08.516Z,2.33
2023-02-02T01:28:35.680Z,2.90
2023-02-02T01:31:08.044Z,2.58
2023-02-02T01:33:34.635Z,2.25
2023-02-02T01:36:08.321Z,2.97
2023-02-02T01:38:35.114Z,2.53
2023-02-02T01:41:04.611Z,2.05
2023-02-02T01:43:58.754Z,2.50
2023-02-02T01:46:29.088Z,2.33
2023-02-02T01:49:01.591Z,2.65
2023-02-02T01:51:44.138Z,2.25
2023-02-02T01:54:18.474Z,2.65
2023-02-02T01:56:51.268Z,2.55
2023-02-02T01:59:18.801Z,2.38
2023-02-02T02:01:47.745Z,2.83
2023-02-02T02:04:14.676Z,2.78
2023-02-02T02:06:42.543Z,2.92
2023-02-02T02:09:09.129Z,2.40
2023-02-02T02:11:36.588Z,2.95
2023-02-02T02:14:24.753Z,1.98
2023-02-02T02:17:20.608Z,2.22
2023-02-02T02:20:28.626Z,2.17
2023-02-02T02:23:31.629Z,2.28
2023-02-02T02:26:35.323Z,2.60
2023-02-02T02:29:32.416Z,2.70
2023-02-02T02:32:09.224Z,2.67
2023-02-02T02:34:38.528Z,2.95
2023-02-02T02:37:17.605Z,2.55
2023-02-02T02:40:05.517Z,2.22
2023-02-02T02:42:37.857Z,2.90
2023-02-02T02:45:06.967Z,1.90
2023-02-02T02:47:35.445Z,2.50
2023-02-02T02:50:02.034Z,2.42
2023-02-02T02:52:28.630Z,2.63
2023-02-02T02:54:57.639Z,2.65
2023-02-02T02:57:49.841Z,3.28
2023-02-02T03:00:53.039Z,2.80
2023-02-02T03:03:37.817Z,2.47
2023-02-02T03:06:04.331Z,3.45
2023-02-02T03:08:46.567Z,2.97
2023-02-02T03:11:15.659Z,3.00
2023-02-02T03:13:43.331Z,2.70
2023-02-02T03:16:10.884Z,2.45
2023-02-02T03:18:38.038Z,3.03
2023-02-02T03:21:04.665Z,3.10
2023-02-02T03:23:31.213Z,3.83
2023-02-02T03:25:57.864Z,3.20
2023-02-02T03:28:25.264Z,3.10
2023-02-02T03:30:54.671Z,3.03
2023-02-02T03:33:21.826Z,3.42
2023-02-02T03:35:48.294Z,3.63
2023-02-02T03:38:14.806Z,3.10
2023-02-02T03:40:41.579Z,3.05
2023-02-02T03:43:08.251Z,3.50
2023-02-02T03:45:40.677Z,3.20
2023-02-02T03:48:07.359Z,3.88
2023-02-02T03:50:33.885Z,3.63
2023-02-02T03:53:00.324Z,3.25
2023-02-02T03:55:26.945Z,3.58
2023-02-02T03:57:53.490Z,3.17
2023-02-02T04:00:20.453Z,3.42
2023-02-02T04:02:46.946Z,3.95
2023-02-02T04:05:13.417Z,3.58
2023-02-02T04:07:40.343Z,3.90
2023-02-02T04:10:07.177Z,3.05
2023-02-02T04:12:33.693Z,3.20
2023-02-02T04:15:00.207Z,3.13
2023-02-02T04:17:26.595Z,2.95
2023-02-02T04:19:58.096Z,3.05
2023-02-02T04:22:25.920Z,3.42
2023-02-02T04:24:52.552Z,3.15
2023-02-02T04:27:19.648Z,2.53
2023-02-02T04:29:46.213Z,2.40
2023-02-02T04:32:15.173Z,2.42
2023-02-02T04:34:41.984Z,2.40
2023-02-02T04:37:08.673Z,2.72
2023-02-02T04:39:35.222Z,1.80
2023-02-02T04:42:01.896Z,2.10
2023-02-02T04:44:28.630Z,2.45
2023-02-02T04:46:55.067Z,1.67
2023-02-02T04:49:21.981Z,1.60
2023-02-02T04:51:50.302Z,1.85
2023-02-02T04:57:00.618Z,2.03
2023-02-02T04:59:28.877Z,1.80
2023-02-02T05:01:56.626Z,1.65
2023-02-02T05:04:22.985Z,1.77
2023-02-02T05:06:49.305Z,1.85
2023-02-02T05:09:15.696Z,1.40
2023-02-02T05:11:44.421Z,1.65
2023-02-02T05:14:10.989Z,1.42
2023-02-02T05:16:37.359Z,1.60
2023-02-02T05:19:03.755Z,1.60
2023-02-02T05:21:30.092Z,2.05
2023-02-02T05:23:58.147Z,1.20
2023-02-02T05:26:27.025Z,1.90
2023-02-02T05:28:53.884Z,1.13
2023-02-02T05:31:21.055Z,1.73
2023-02-02T05:33:47.527Z,1.17
2023-02-02T05:36:14.058Z,1.70
2023-02-02T05:38:40.403Z,1.27
2023-02-02T05:41:06.821Z,1.42
2023-02-02T05:43:33.725Z,1.60
2023-02-02T05:46:00.670Z,1.00
2023-02-02T05:48:27.917Z,1.15
2023-02-02T05:51:02.552Z,1.30
2023-02-02T05:53:30.797Z,1.50
2023-02-02T05:55:57.502Z,1.30
2023-02-02T05:58:24.241Z,0.98
2023-02-02T06:00:50.591Z,1.25
2023-02-02T06:03:17.358Z,1.10
2023-02-02T06:05:43.831Z,1.00
2023-02-02T06:08:10.351Z,1.98
2023-02-02T06:10:39.927Z,1.48
2023-02-02T06:13:06.433Z,1.75
2023-02-02T06:15:33.079Z,1.30
2023-02-02T06:18:01.450Z,1.27
2023-02-02T06:20:28.097Z,1.40
2023-02-02T06:22:54.493Z,0.82
2023-02-02T06:25:20.929Z,1.17
2023-02-02T06:27:49.308Z,0.90
2023-02-02T06:30:16.143Z,1.05
2023-02-02T06:32:42.531Z,0.88
2023-02-02T06:35:09.246Z,0.82
2023-02-02T06:37:35.622Z,0.63
2023-02-02T06:40:02.041Z,1.08
2023-02-02T06:42:28.491Z,1.05
2023-02-02T06:44:54.875Z,1.05
2023-02-02T06:47:21.285Z,0.95
2023-02-02T06:49:47.802Z,1.10
2023-02-02T06:52:14.218Z,1.08
2023-02-02T06:54:40.628Z,1.10
2023-02-02T06:57:06.988Z,0.93
2023-02-02T06:59:33.345Z,0.90
2023-02-02T07:01:59.829Z,0.80
2023-02-02T07:04:26.252Z,0.85
2023-02-02T07:06:52.616Z,0.90
2023-02-02T07:09:19.025Z,0.82
2023-02-02T07:11:45.623Z,1.30
2023-02-02T07:14:12.257Z,0.90
2023-02-02T07:16:38.721Z,0.82
2023-02-02T07:19:05.236Z,0.85
2023-02-02T07:21:35.989Z,1.17
2023-02-02T07:24:03.978Z,0.80
2023-02-02T07:26:30.611Z,1.17
2023-02-02T07:28:57.177Z,0.80
2023-02-02T07:31:26.186Z,0.88
2023-02-02T07:33:53.725Z,0.70
2023-02-02T07:36:23.383Z,0.82
2023-02-02T07:38:53.766Z,0.70
2023-02-02T07:41:20.910Z,1.10
2023-02-02T07:43:48.451Z,2.25
2023-02-02T07:46:16.149Z,1.80
2023-02-02T07:48:42.542Z,1.30
2023-02-02T07:51:14.768Z,0.93
2023-02-02T07:53:45.547Z,0.90
2023-02-02T07:56:17.804Z,0.88
2023-02-02T07:58:44.267Z,0.60
2023-02-02T08:01:12.712Z,0.75
2023-02-02T08:03:39.989Z,0.95
2023-02-02T08:06:12.555Z,0.70
2023-02-02T08:08:38.924Z,0.98
2023-02-02T08:11:07.576Z,0.90
2023-02-02T08:13:33.949Z,1.00
2023-02-02T08:16:00.300Z,1.00
2023-02-02T08:18:26.673Z,0.85
2023-02-02T08:20:52.996Z,0.90
2023-02-02T08:23:23.433Z,1.13
2023-02-02T08:25:50.656Z,0.82
2023-02-02T08:28:18.103Z,0.80
2023-02-02T08:30:45.179Z,1.10
2023-02-02T08:33:11.638Z,0.95
2023-02-02T08:35:44.410Z,1.23
2023-02-02T08:38:10.741Z,1.38
2023-02-02T08:40:37.118Z,1.27
2023-02-02T08:43:04.256Z,0.93
2023-02-02T08:46:12.526Z,0.90
2023-02-02T08:48:19.716Z,0.85
2023-02-02T08:50:52.170Z,1.40
2023-02-02T08:53:18.540Z,1.80
2023-02-02T08:55:44.900Z,1.58
2023-02-02T08:58:11.252Z,1.30
2023-02-02T09:00:37.698Z,1.23
2023-02-02T09:03:04.479Z,1.75
2023-02-02T09:05:30.790Z,1.10
2023-02-02T09:07:57.205Z,1.48
2023-02-02T09:10:23.845Z,1.20
2023-02-02T09:12:50.141Z,1.15
2023-02-02T09:15:16.585Z,1.23
2023-02-02T09:17:42.939Z,1.02
2023-02-02T09:20:09.889Z,1.33
2023-02-02T09:22:36.235Z,1.20
2023-02-02T09:25:02.668Z,1.27
2023-02-02T09:27:29.015Z,0.95
2023-02-02T09:29:55.367Z,1.10
2023-02-02T09:32:21.727Z,0.90
2023-02-02T09:34:48.127Z,1.15
2023-02-02T09:37:14.516Z,1.33
2023-02-02T09:39:40.879Z,1.23
2023-02-02T09:42:19.307Z,1.33
2023-02-02T09:44:54.200Z,1.42
2023-02-02T09:47:46.338Z,1.15
2023-02-02T09:50:22.819Z,0.90
2023-02-02T09:52:58.175Z,1.17
2023-02-02T09:55:38.019Z,1.33
2023-02-02T09:58:18.529Z,1.35
2023-02-02T10:01:22.867Z,1.35
2023-02-02T10:04:07.737Z,1.10
2023-02-02T10:06:43.650Z,1.08
2023-02-02T10:09:26.044Z,1.40
2023-02-02T10:12:20.167Z,1.70
2023-02-02T10:15:14.312Z,1.23
2023-02-02T10:17:57.439Z,1.10
2023-02-02T10:21:05.797Z,1.52
2023-02-02T10:23:47.138Z,1.33
2023-02-02T10:26:20.352Z,1.27
2023-02-02T10:28:58.291Z,1.55
2023-02-02T10:32:22.352Z,1.65
2023-02-02T10:35:13.453Z,1.40
2023-02-02T10:37:51.242Z,2.05
2023-02-02T10:40:26.937Z,2.15
2023-02-02T10:43:31.016Z,1.92
2023-02-02T10:45:58.938Z,2.72
2023-02-02T10:48:35.405Z,2.65
2023-02-02T10:51:11.188Z,3.00
2023-02-02T10:56:43.001Z,3.03
2023-02-02T10:59:32.283Z,3.90
2023-02-02T11:02:08.662Z,3.22
2023-02-02T11:05:00.623Z,3.33
2023-02-02T11:07:26.993Z,2.72
2023-02-02T11:09:53.584Z,3.10
2023-02-02T11:12:32.363Z,3.10
2023-02-02T11:15:07.380Z,3.63
2023-02-02T11:17:34.764Z,3.40
2023-02-02T11:20:01.574Z,3.55
2023-02-02T11:22:38.366Z,3.47
2023-02-02T11:25:07.362Z,3.63
2023-02-02T11:27:42.428Z,3.45
2023-02-02T11:30:25.677Z,3.28
2023-02-02T11:32:52.617Z,3.88
2023-02-02T11:35:24.728Z,3.40
2023-02-02T11:38:14.471Z,4.00
2023-02-02T11:41:11.008Z,3.70
2023-02-02T11:43:44.530Z,4.65
2023-02-02T11:46:22.257Z,3.95
2023-02-02T11:49:01.921Z,3.75
2023-02-02T11:51:30.671Z,4.13
2023-02-02T11:54:17.560Z,4.60
2023-02-02T11:56:51.761Z,3.78
2023-02-02T11:59:37.491Z,3.40
2023-02-02T12:02:13.497Z,3.42
2023-02-02T12:04:40.614Z,4.28
2023-02-02T12:07:31.802Z,3.53
2023-02-02T12:10:01.622Z,3.50
2023-02-02T12:13:08.321Z,3.50
2023-02-02T12:16:19.817Z,3.10
2023-02-02T12:18:49.231Z,3.03
2023-02-02T12:21:26.255Z,2.80
2023-02-02T12:24:04.558Z,2.83
2023-02-02T12:26:34.442Z,2.97
2023-02-02T12:29:07.163Z,3.25
2023-02-02T12:32:14.929Z,3.10
2023-02-02T12:34:50.145Z,3.13
2023-02-02T12:37:54.348Z,2.63
2023-02-02T12:40:49.946Z,2.85
2023-02-02T12:43:37.149Z,2.70
2023-02-02T12:46:18.805Z,2.63
2023-02-02T12:48:54.435Z,2.63
2023-02-02T12:51:39.503Z,2.97
2023-02-02T12:54:34.761Z,2.35
2023-02-02T12:57:32.717Z,3.35
2023-02-02T13:00:17.462Z,3.33
2023-02-02T13:03:17.685Z,3.22
2023-02-02T13:06:05.362Z,3.40
2023-02-02T13:08:57.912Z,3.22
2023-02-02T13:11:42.301Z,3.53
2023-02-02T13:14:28.569Z,3.33
2023-02-02T13:17:00.905Z,3.15
2023-02-02T13:19:46.255Z,4.05
2023-02-02T13:22:17.778Z,3.22
2023-02-02T13:24:47.917Z,2.83
2023-02-02T13:27:19.069Z,3.35
2023-02-02T13:30:17.863Z,3.08
2023-02-02T13:32:46.743Z,2.75
2023-02-02T13:35:19.925Z,4.03
2023-02-02T13:38:12.431Z,6.38
2023-02-02T13:40:41.147Z,5.45
2023-02-02T13:43:39.831Z,4.28
2023-02-02T13:46:21.340Z,3.97
2023-02-02T13:48:56.869Z,3.88
2023-02-02T13:51:31.958Z,4.35
2023-02-02T13:54:28.549Z,3.85
2023-02-02T13:57:37.506Z,3.80
2023-02-02T14:00:13.611Z,3.95
2023-02-02T14:02:43.897Z,2.90
2023-02-02T14:05:24.599Z,3.28
2023-02-02T14:08:07.227Z,3.40
2023-02-02T14:11:07.729Z,3.70
2023-02-02T14:14:02.138Z,3.35
2023-02-02T14:16:31.242Z,3.10
2023-02-02T14:19:01.882Z,3.20
2023-02-02T14:21:34.120Z,3.47
2023-02-02T14:24:29.063Z,3.03
2023-02-02T14:27:23.239Z,3.17
2023-02-02T14:29:50.158Z,3.42
2023-02-02T14:32:28.649Z,3.22
2023-02-02T14:34:58.023Z,3.30
2023-02-02T14:37:24.437Z,3.40
2023-02-02T14:40:06.125Z,3.38
2023-02-02T14:42:51.964Z,3.40
2023-02-02T14:45:33.242Z,3.03
2023-02-02T14:48:16.257Z,3.15
2023-02-02T14:50:52.719Z,3.60
2023-02-02T14:53:28.557Z,3.53
2023-02-02T14:56:08.881Z,3.10
2023-02-02T14:59:00.180Z,2.55
2023-02-02T15:01:31.264Z,3.20
2023-02-02T15:04:00.773Z,3.65
2023-02-02T15:06:31.486Z,3.80
2023-02-02T15:09:19.857Z,3.50
2023-02-02T15:12:02.126Z,3.63
2023-02-02T15:15:02.373Z,3.20
2023-02-02T15:17:48.910Z,3.20
2023-02-02T15:20:28.566Z,3.03
2023-02-02T15:23:04.229Z,3.25
2023-02-02T15:25:36.819Z,2.95
2023-02-02T15:28:15.857Z,2.92
2023-02-02T15:30:45.145Z,3.08
2023-02-02T15:33:23.257Z,3.70
2023-02-02T15:35:50.510Z,3.35
2023-02-02T15:38:20.310Z,3.60
2023-02-02T15:40:46.893Z,3.47
2023-02-02T15:43:14.703Z,3.95
2023-02-02T15:45:43.693Z,3.80
2023-02-02T15:48:30.981Z,3.80
2023-02-02T15:51:00.670Z,3.50
2023-02-02T15:53:32.904Z,3.75
2023-02-02T15:56:00.372Z,4.15
2023-02-02T15:58:29.272Z,4.50
2023-02-02T16:00:58.346Z,4.70
2023-02-02T16:03:46.756Z,3.78
2023-02-02T16:06:13.305Z,3.67
2023-02-02T16:08:41.926Z,3.45
2023-02-02T16:11:21.971Z,3.70
2023-02-02T16:14:04.003Z,3.95
2023-02-02T16:16:36.438Z,5.32
2023-02-02T16:19:08.878Z,4.72
2023-02-02T16:21:40.783Z,5.87
2023-02-02T16:24:17.458Z,4.57
2023-02-02T16:26:44.224Z,4.55
2023-02-02T16:29:17.404Z,4.95
2023-02-02T16:31:48.853Z,4.65
2023-02-02T16:34:38.928Z,4.82
2023-02-02T16:37:27.398Z,5.30
2023-02-02T16:39:55.757Z,5.45
2023-02-02T16:42:25.678Z,5.30
2023-02-02T16:44:52.540Z,6.07
2023-02-02T16:47:26.504Z,6.00
2023-02-02T16:49:54.673Z,5.97
2023-02-02T16:52:22.397Z,7.30
2023-02-02T16:57:33.104Z,7.43
2023-02-02T17:00:22.297Z,6.60
2023-02-02T17:02:52.572Z,6.75
2023-02-02T17:05:27.916Z,8.10
2023-02-02T17:08:05.508Z,8.13
2023-02-02T17:10:39.658Z,11.48
2023-02-02T17:13:39.719Z,9.02
2023-02-02T17:16:06.424Z,7.95
2023-02-02T17:18:32.906Z,7.57
2023-02-02T17:21:04.169Z,7.32
2023-02-02T17:23:32.378Z,6.80
2023-02-02T17:25:59.353Z,8.32
2023-02-02T17:28:27.177Z,7.63
2023-02-02T17:31:01.438Z,7.70
2023-02-02T17:33:28.350Z,7.10
2023-02-02T17:35:56.444Z,8.75
2023-02-02T17:38:24.814Z,8.57
2023-02-02T17:40:51.634Z,8.93
2023-02-02T17:43:18.115Z,9.73
2023-02-02T17:45:44.623Z,8.65
2023-02-02T17:48:12.763Z,11.93
2023-02-02T17:50:40.685Z,10.02
2023-02-02T17:53:11.528Z,10.10
2023-02-02T17:55:40.531Z,8.40
2023-02-02T17:58:07.005Z,8.18
2023-02-02T18:00:33.991Z,7.78
2023-02-02T18:03:10.337Z,8.52
2023-02-02T18:05:42.075Z,7.63
2023-02-02T18:08:11.400Z,8.27
2023-02-02T18:10:38.320Z,8.27
2023-02-02T18:13:05.796Z,7.63
2023-02-02T18:15:32.637Z,7.95
2023-02-02T18:18:01.377Z,8.05
2023-02-02T18:20:28.015Z,6.80
2023-02-02T18:22:54.436Z,7.85
2023-02-02T18:25:20.907Z,7.45
2023-02-02T18:27:49.075Z,7.40
2023-02-02T18:30:15.712Z,8.23
2023-02-02T18:32:43.105Z,7.55
2023-02-02T18:35:11.681Z,6.97
2023-02-02T18:37:39.186Z,7.43
2023-02-02T18:40:07.819Z,7.22
2023-02-02T18:42:35.194Z,6.50
2023-02-02T18:45:02.083Z,6.07
2023-02-02T18:47:28.691Z,6.20
2023-02-02T18:49:55.366Z,5.97
2023-02-02T18:52:21.845Z,6.00
2023-02-02T18:54:48.741Z,5.60
2023-02-02T18:57:15.818Z,5.38
2023-02-02T18:59:43.361Z,5.05
2023-02-02T19:02:18.147Z,4.97
2023-02-02T19:05:03.905Z,5.80
2023-02-02T19:07:51.809Z,5.65
2023-02-02T19:10:19.095Z,6.07
2023-02-02T19:12:56.185Z,8.27
2023-02-02T19:15:23.231Z,8.75
2023-02-02T19:17:52.863Z,8.20
2023-02-02T19:20:25.441Z,8.68
2023-02-02T19:22:59.540Z,9.43
2023-02-02T19:25:26.249Z,10.55
2023-02-02T19:27:52.718Z,10.77
2023-02-02T19:30:22.035Z,10.75
2023-02-02T19:32:49.003Z,11.93
2023-02-02T19:35:21.454Z,11.68
2023-02-02T19:37:49.347Z,12.85
2023-02-02T19:40:19.950Z,12.35
2023-02-02T19:43:08.325Z,12.10
2023-02-02T19:45:35.695Z,13.50
2023-02-02T19:48:14.056Z,12.20
2023-02-02T19:50:43.323Z,13.95
2023-02-02T19:53:37.839Z,12.95
2023-02-02T19:56:24.573Z,13.35
2023-02-02T19:58:51.039Z,14.25
2023-02-02T20:01:20.832Z,13.93
2023-02-02T20:03:47.728Z,13.85
2023-02-02T20:06:24.642Z,14.50
2023-02-02T20:08:51.380Z,14.77
2023-02-02T20:11:23.944Z,14.70
2023-02-02T20:13:51.524Z,16.08
2023-02-02T20:16:23.222Z,14.75
2023-02-02T20:18:55.224Z,16.33
2023-02-02T20:21:30.939Z,16.13
2023-02-02T20:23:57.554Z,15.20
2023-02-02T20:26:28.412Z,14.90
2023-02-02T20:28:57.523Z,16.92
2023-02-02T20:31:28.876Z,14.57
2023-02-02T20:33:57.515Z,15.73
2023-02-02T20:36:40.177Z,15.73
2023-02-02T20:39:21.992Z,15.23
2023-02-02T20:41:48.658Z,15.73
2023-02-02T20:44:15.069Z,16.35
2023-02-02T20:46:41.451Z,16.98
2023-02-02T20:49:07.901Z,16.02
2023-02-02T20:51:34.479Z,16.17
2023-02-02T20:54:01.146Z,17.33
2023-02-02T20:56:27.533Z,19.35
2023-02-02T20:58:53.879Z,20.00
2023-02-02T21:01:23.245Z,19.23
2023-02-02T21:03:49.680Z,19.48
2023-02-02T21:06:19.469Z,20.08
2023-02-02T21:08:47.563Z,19.52
2023-02-02T21:11:13.955Z,21.98
2023-02-02T21:13:40.317Z,19.85
2023-02-02T21:16:07.048Z,22.25
2023-02-02T21:18:33.484Z,20.98
2023-02-02T21:20:59.939Z,23.02
2023-02-02T21:23:26.362Z,22.52
2023-02-02T21:25:52.739Z,22.10
2023-02-02T21:28:19.139Z,23.15
2023-02-02T21:30:45.772Z,22.63
2023-02-02T21:33:12.300Z,22.38
2023-02-02T21:35:38.645Z,22.25
2023-02-02T21:38:12.950Z,22.88
2023-02-02T21:40:40.212Z,21.85
2023-02-02T21:43:17.167Z,21.42
2023-02-02T21:45:47.428Z,22.98
2023-02-02T21:48:19.624Z,21.42
2023-02-02T21:50:46.888Z,21.10
2023-02-02T21:53:13.625Z,21.52
2023-02-02T21:55:40.630Z,21.73
2023-02-02T21:58:22.259Z,19.38
2023-02-02T22:00:57.807Z,20.08
2023-02-02T22:03:33.139Z,20.67
2023-02-02T22:06:13.661Z,18.77
2023-02-02T22:08:40.102Z,17.92
2023-02-02T22:11:24.866Z,19.80
2023-02-02T22:13:52.623Z,19.10
2023-02-02T22:16:22.722Z,20.27
2023-02-02T22:18:49.225Z,19.58
2023-02-02T22:21:20.605Z,19.92
2023-02-02T22:23:47.419Z,19.60
2023-02-02T22:26:31.228Z,19.23
2023-02-02T22:28:57.668Z,18.73
2023-02-02T22:31:24.209Z,20.30
2023-02-02T22:33:50.691Z,18.33
2023-02-02T22:36:17.035Z,18.67
2023-02-02T22:38:43.335Z,17.80
2023-02-02T22:41:09.824Z,17.70
2023-02-02T22:43:36.264Z,17.80
2023-02-02T22:46:02.751Z,17.77
2023-02-02T22:48:29.339Z,18.67
2023-02-02T22:50:55.777Z,17.17
2023-02-02T22:53:22.323Z,18.67
2023-02-02T22:55:57.572Z,17.48
2023-02-02T22:58:31.216Z,17.20
2023-02-02T23:01:18.320Z,18.35
2023-02-02T23:03:49.757Z,18.10
2023-02-02T23:06:24.714Z,17.38
2023-02-02T23:08:55.501Z,19.15
2023-02-02T23:11:22.053Z,18.23
2023-02-02T23:13:53.328Z,17.48
2023-02-02T23:16:25.057Z,17.25
2023-02-02T23:18:51.638Z,17.25
2023-02-02T23:21:20.453Z,16.75
2023-02-02T23:23:47.218Z,16.38
2023-02-02T23:26:13.793Z,16.52
2023-02-02T23:28:40.442Z,15.43
2023-02-02T23:31:08.118Z,16.17
2023-02-02T23:33:36.929Z,17.08
2023-02-02T23:36:03.804Z,14.75
2023-02-02T23:38:30.368Z,15.30
2023-02-02T23:40:59.145Z,14.57
2023-02-02T23:43:25.824Z,14.10
2023-02-02T23:45:52.679Z,14.07
2023-02-02T23:48:19.930Z,14.45
2023-02-02T23:50:47.001Z,13.32
2023-02-02T23:53:14.778Z,14.32
2023-02-02T23:55:43.128Z,14.00
2023-02-02T23:58:10.839Z,14.05
